createdAt,value
2023-02-19T00:02:47.963Z,99928.84
2023-02-19T00:04:22.644Z,99921.09
2023-02-19T00:05:54.719Z,99925.34
2023-02-19T00:07:26.775Z,99930.44
2023-02-19T00:08:59.419Z,99916.84
2023-02-19T00:10:31.598Z,99919.41
2023-02-19T00:12:03.775Z,99922.78
2023-02-19T00:13:43.815Z,99923.66
2023-02-19T00:15:15.854Z,99923.59
2023-02-19T00:16:48.282Z,99925.22
2023-02-19T00:18:20.290Z,99928.66
2023-02-19T00:19:52.416Z,99928.72
2023-02-19T00:21:24.814Z,99925.38
2023-02-19T00:22:56.826Z,99927.97
2023-02-19T00:24:28.993Z,99917.81
2023-02-19T00:26:18.101Z,99927.25
2023-02-19T00:27:50.736Z,99918.69
2023-02-19T00:29:23.097Z,99918.72
2023-02-19T00:30:55.336Z,99922.19
2023-02-19T00:32:27.307Z,99917.03
2023-02-19T00:34:01.901Z,99923.91
2023-02-19T00:37:10.041Z,99930.72
2023-02-19T00:38:43.329Z,99928.16
2023-02-19T00:40:15.431Z,99929.06
2023-02-19T00:41:47.943Z,99935.03
2023-02-19T00:43:19.947Z,99934.25
2023-02-19T00:44:51.989Z,99935.13
2023-02-19T00:46:28.859Z,99939.34
2023-02-19T00:48:00.952Z,99940.13
2023-02-19T00:49:32.965Z,99942.66
2023-02-19T00:51:05.048Z,99946.88
2023-02-19T00:52:37.300Z,99962.25
2023-02-19T00:54:11.012Z,99955.38
2023-02-19T00:55:43.641Z,99960.38
2023-02-19T00:57:15.614Z,99967.94
2023-02-19T00:58:48.290Z,99962.78
2023-02-19T01:00:23.038Z,99966.94
2023-02-19T01:01:55.066Z,99970.31
2023-02-19T01:03:27.432Z,99969.47
2023-02-19T01:04:59.585Z,99969.41
2023-02-19T01:06:32.855Z,99973.66
2023-02-19T01:08:04.984Z,99968.50
2023-02-19T01:09:38.446Z,99967.66
2023-02-19T01:12:42.407Z,99954.81
2023-02-19T01:14:14.595Z,99962.56
2023-02-19T01:15:46.767Z,99968.50
2023-02-19T01:17:18.823Z,99960.84
2023-02-19T01:18:51.841Z,99965.94
2023-02-19T01:20:23.941Z,99959.03
2023-02-19T01:21:55.910Z,99962.41
2023-02-19T01:23:27.949Z,99952.16
2023-02-19T01:25:02.138Z,99950.47
2023-02-19T01:26:34.517Z,99952.19
2023-02-19T01:28:06.842Z,99947.13
2023-02-19T01:29:39.002Z,99959.13
2023-02-19T01:31:14.390Z,99966.00
2023-02-19T01:32:46.647Z,99956.63
2023-02-19T01:34:18.663Z,99974.63
2023-02-19T01:35:50.728Z,99963.59
2023-02-19T01:37:22.694Z,99969.69
2023-02-19T01:38:55.174Z,99963.84
2023-02-19T01:40:27.311Z,99954.53
2023-02-19T01:41:59.332Z,99950.31
2023-02-19T01:43:36.468Z,99959.81
2023-02-19T01:45:14.596Z,99967.53
2023-02-19T01:46:48.819Z,99964.09
2023-02-19T01:48:25.770Z,99964.19
2023-02-19T01:49:58.193Z,99963.38
2023-02-19T01:51:31.719Z,99963.44
2023-02-19T01:53:05.931Z,99960.88
2023-02-19T01:54:38.947Z,99960.81
2023-02-19T01:56:12.376Z,99964.19
2023-02-19T01:57:47.320Z,99966.72
2023-02-19T01:59:19.483Z,99972.56
2023-02-19T02:00:52.178Z,99979.31
2023-02-19T02:02:25.475Z,99982.72
2023-02-19T02:03:57.895Z,99976.78
2023-02-19T02:06:03.651Z,99978.50
2023-02-19T02:07:54.363Z,99984.34
2023-02-19T02:09:46.845Z,99983.47
2023-02-19T02:11:20.132Z,99988.66
2023-02-19T02:12:53.894Z,99976.75
2023-02-19T02:14:29.222Z,99980.22
2023-02-19T02:16:10.801Z,99975.03
2023-02-19T02:18:01.966Z,99986.06
2023-02-19T02:20:01.431Z,99992.81
2023-02-19T02:22:02.379Z,99991.00
2023-02-19T02:23:55.535Z,99991.00
2023-02-19T02:25:39.813Z,100004.56
2023-02-19T02:27:29.101Z,100002.94
2023-02-19T02:29:28.295Z,100004.66
2023-02-19T02:31:04.967Z,99999.59
2023-02-19T02:33:15.091Z,100004.72
2023-02-19T02:34:54.975Z,100013.28
2023-02-19T02:36:30.590Z,100013.31
2023-02-19T02:38:06.810Z,100009.09
2023-02-19T02:39:39.558Z,100009.94
2023-02-19T02:41:13.328Z,100011.66
2023-02-19T02:42:45.434Z,100008.25
2023-02-19T02:44:17.541Z,100021.09
2023-02-19T02:45:49.858Z,100021.09
2023-02-19T02:47:40.357Z,100026.19
2023-02-19T02:49:17.943Z,100032.25
2023-02-19T02:50:54.701Z,100028.88
2023-02-19T02:52:45.065Z,100029.72
2023-02-19T02:54:41.143Z,100028.06
2023-02-19T02:56:14.802Z,100025.56
2023-02-19T02:57:46.954Z,100037.53
2023-02-19T02:59:22.701Z,100027.34
2023-02-19T03:01:20.704Z,100030.81
2023-02-19T03:02:53.154Z,100027.38
2023-02-19T03:05:15.294Z,100038.56
2023-02-19T03:06:48.414Z,100032.66
2023-02-19T03:08:20.465Z,100041.19
2023-02-19T03:09:52.874Z,100040.38
2023-02-19T03:11:43.940Z,100042.88
2023-02-19T03:15:20.304Z,100044.56
2023-02-19T03:17:16.579Z,100047.06
2023-02-19T03:19:10.760Z,100052.19
2023-02-19T03:20:46.294Z,100049.53
2023-02-19T03:22:23.368Z,100051.13
2023-02-19T03:24:15.304Z,100058.75
2023-02-19T03:26:05.530Z,100043.22
2023-02-19T03:27:39.380Z,100044.03
2023-02-19T03:29:24.544Z,100053.44
2023-02-19T03:30:56.633Z,100038.97
2023-02-19T03:32:50.158Z,100041.66
2023-02-19T03:34:29.920Z,100047.69
2023-02-19T03:36:04.649Z,100044.25
2023-02-19T03:37:42.455Z,100053.75
2023-02-19T03:39:17.615Z,100046.91
2023-02-19T03:40:57.505Z,100061.47
2023-02-19T03:42:49.848Z,100058.94
2023-02-19T03:44:30.762Z,100059.75
2023-02-19T03:46:23.587Z,100059.81
2023-02-19T03:48:10.455Z,100053.78
2023-02-19T03:50:21.282Z,100050.31
2023-02-19T03:52:25.311Z,100045.16
2023-02-19T03:54:39.661Z,100050.97
2023-02-19T03:56:20.331Z,100050.00
2023-02-19T03:57:59.089Z,100050.81
2023-02-19T03:59:57.294Z,100058.50
2023-02-19T04:01:33.608Z,100048.16
2023-02-19T04:04:02.459Z,100053.34
2023-02-19T04:05:38.894Z,100059.34
2023-02-19T04:07:11.035Z,100056.69
2023-02-19T04:08:48.235Z,100049.84
2023-02-19T04:10:21.157Z,100048.94
2023-02-19T04:11:54.501Z,100057.47
2023-02-19T04:13:56.964Z,100061.66
2023-02-19T04:15:31.972Z,100060.66
2023-02-19T04:17:08.295Z,100063.97
2023-02-19T04:18:42.052Z,100065.63
2023-02-19T04:20:14.809Z,100061.34
2023-02-19T04:21:47.671Z,100063.13
2023-02-19T04:23:23.127Z,100056.38
2023-02-19T04:24:55.927Z,100065.69
2023-02-19T04:26:28.490Z,100071.56
2023-02-19T04:28:00.797Z,100070.69
2023-02-19T04:29:32.988Z,100073.28
2023-02-19T04:31:05.191Z,100070.69
2023-02-19T04:32:37.330Z,100072.44
2023-02-19T04:34:09.269Z,100064.72
2023-02-19T04:35:41.369Z,100062.16
2023-02-19T04:37:13.468Z,100065.56
2023-02-19T04:38:46.586Z,100066.50
2023-02-19T04:40:18.734Z,100063.13
2023-02-19T04:41:50.749Z,100067.41
2023-02-19T04:43:22.775Z,100064.78
2023-02-19T04:44:54.890Z,100065.56
2023-02-19T04:46:27.039Z,100067.25
2023-02-19T04:47:59.293Z,100072.25
2023-02-19T04:49:31.245Z,100074.84
2023-02-19T04:51:07.593Z,100068.94
2023-02-19T04:52:39.749Z,100072.31
2023-02-19T04:54:11.744Z,100064.63
2023-02-19T04:55:43.732Z,100062.84
2023-02-19T04:57:15.750Z,100063.69
2023-02-19T04:58:47.974Z,100056.03
2023-02-19T05:00:20.102Z,100061.22
2023-02-19T05:01:52.238Z,100059.53
2023-02-19T05:03:24.315Z,100068.91
2023-02-19T05:04:56.470Z,100065.53
2023-02-19T05:06:28.546Z,100075.81
2023-02-19T05:08:00.604Z,100078.34
2023-02-19T05:09:32.637Z,100082.66
2023-02-19T05:11:06.835Z,100084.41
2023-02-19T05:12:38.922Z,100082.63
2023-02-19T05:14:10.930Z,100082.63
2023-02-19T05:15:42.974Z,100079.25
2023-02-19T05:17:15.104Z,100080.09
2023-02-19T05:18:47.761Z,100084.44
2023-02-19T05:20:19.756Z,100090.34
2023-02-19T05:21:51.748Z,100095.31
2023-02-19T05:23:23.865Z,100105.50
2023-02-19T05:24:55.950Z,100101.16
2023-02-19T05:26:28.133Z,100107.09
2023-02-19T05:28:17.332Z,100103.66
2023-02-19T05:29:49.280Z,100111.28
2023-02-19T05:31:23.000Z,100115.63
2023-02-19T05:32:55.744Z,100113.91
2023-02-19T05:34:27.696Z,100119.00
2023-02-19T05:35:59.842Z,100119.00
2023-02-19T05:37:31.935Z,100116.47
2023-02-19T05:39:04.006Z,100119.06
2023-02-19T05:40:36.207Z,100127.50
2023-02-19T05:42:08.253Z,100117.28
2023-02-19T05:43:41.092Z,100118.22
2023-02-19T05:45:13.214Z,100127.63
2023-02-19T05:46:45.281Z,100116.63
2023-02-19T05:48:17.302Z,100117.50
2023-02-19T05:49:49.379Z,100115.06
2023-02-19T05:52:54.277Z,100111.72
2023-02-19T05:54:29.422Z,100121.28
2023-02-19T05:56:02.090Z,100118.72
2023-02-19T05:57:34.129Z,100121.28
2023-02-19T05:59:26.902Z,100122.22
2023-02-19T06:00:58.948Z,100125.59
2023-02-19T06:02:30.975Z,100118.81
2023-02-19T06:04:03.176Z,100127.44
2023-02-19T06:05:35.246Z,100124.94
2023-02-19T06:07:07.291Z,100134.44
2023-02-19T06:08:39.284Z,100136.16
2023-02-19T06:10:12.456Z,100137.09
2023-02-19T06:11:45.122Z,100142.25
2023-02-19T06:13:17.904Z,100146.59
2023-02-19T06:14:50.248Z,100141.56
2023-02-19T06:16:22.430Z,100143.38
2023-02-19T06:17:54.466Z,100148.66
2023-02-19T06:19:26.482Z,100148.78
2023-02-19T06:21:03.186Z,100149.81
2023-02-19T06:22:35.146Z,100151.56
2023-02-19T06:24:08.920Z,100156.03
2023-02-19T06:25:41.025Z,100155.34
2023-02-19T06:27:13.145Z,100165.75
2023-02-19T06:28:46.256Z,100151.38
2023-02-19T06:30:18.574Z,100156.66
2023-02-19T06:31:50.722Z,100149.06
2023-02-19T06:33:22.758Z,100156.06
2023-02-19T06:34:54.837Z,100157.03
2023-02-19T06:36:26.994Z,100156.34
2023-02-19T06:37:59.042Z,100162.44
2023-02-19T06:39:31.108Z,100160.00
2023-02-19T06:41:05.282Z,100159.25
2023-02-19T06:42:37.423Z,100161.06
2023-02-19T06:44:09.519Z,100157.75
2023-02-19T06:45:41.539Z,100170.72
2023-02-19T06:47:13.582Z,100155.41
2023-02-19T06:48:46.259Z,100162.34
2023-02-19T06:50:18.305Z,100158.09
2023-02-19T06:51:50.379Z,100158.16
2023-02-19T06:53:22.899Z,100151.38
2023-02-19T06:54:55.032Z,100149.72
2023-02-19T06:56:32.444Z,100148.06
2023-02-19T06:58:04.570Z,100148.91
2023-02-19T06:59:36.624Z,100148.97
2023-02-19T07:01:12.229Z,100146.34
2023-02-19T07:02:44.498Z,100144.47
2023-02-19T07:04:16.636Z,100135.59
2023-02-19T07:05:48.933Z,100135.25
2023-02-19T07:07:21.046Z,100140.00
2023-02-19T07:08:54.450Z,100127.47
2023-02-19T07:10:26.638Z,100125.34
2023-02-19T07:11:58.658Z,100125.59
2023-02-19T07:13:30.818Z,100131.19
2023-02-19T07:15:02.922Z,100130.75
2023-02-19T07:16:36.192Z,100129.16
2023-02-19T07:18:10.716Z,100134.63
2023-02-19T07:19:45.170Z,100129.78
2023-02-19T07:21:18.423Z,100139.47
2023-02-19T07:22:50.826Z,100134.78
2023-02-19T07:24:23.115Z,100130.25
2023-02-19T07:25:55.177Z,100133.41
2023-02-19T07:27:27.306Z,100127.69
2023-02-19T07:28:59.492Z,100132.47
2023-02-19T07:30:31.518Z,100132.16
2023-02-19T07:32:06.015Z,100128.53
2023-02-19T07:33:38.528Z,100140.47
2023-02-19T07:35:10.592Z,100134.09
2023-02-19T07:36:42.756Z,100138.16
2023-02-19T07:38:18.497Z,100129.19
2023-02-19T07:39:50.886Z,100127.53
2023-02-19T07:41:24.178Z,100132.47
2023-02-19T07:42:56.235Z,100140.00
2023-02-19T07:44:28.349Z,100150.28
2023-02-19T07:46:04.118Z,100146.50
2023-02-19T07:47:36.275Z,100146.53
2023-02-19T07:49:08.386Z,100148.94
2023-02-19T07:50:40.654Z,100153.16
2023-02-19T07:52:12.718Z,100161.03
2023-02-19T07:53:45.434Z,100167.88
2023-02-19T07:55:17.559Z,100165.03
2023-02-19T07:56:49.628Z,100167.59
2023-02-19T07:58:21.681Z,100166.63
2023-02-19T07:59:53.707Z,100160.44
2023-02-19T08:01:45.614Z,100164.63
2023-02-19T08:03:17.624Z,100158.25
2023-02-19T08:04:52.768Z,100154.88
2023-02-19T08:06:24.804Z,100151.22
2023-02-19T08:07:57.606Z,100153.88
2023-02-19T08:09:29.692Z,100149.19
2023-02-19T08:11:21.091Z,100158.63
2023-02-19T08:13:16.016Z,100152.19
2023-02-19T08:14:48.033Z,100155.53
2023-02-19T08:16:33.103Z,100156.00
2023-02-19T08:18:14.259Z,100152.34
2023-02-19T08:19:46.115Z,100157.22
2023-02-19T08:21:21.363Z,100151.28
2023-02-19T08:22:53.448Z,100141.38
2023-02-19T08:25:59.463Z,100133.72
2023-02-19T08:27:31.445Z,100122.34
2023-02-19T08:29:05.025Z,100120.22
2023-02-19T08:30:38.858Z,100124.34
2023-02-19T08:32:10.982Z,100112.78
2023-02-19T08:33:43.421Z,100111.84
2023-02-19T08:35:15.588Z,100106.19
2023-02-19T08:36:47.913Z,100123.28
2023-02-19T08:38:21.486Z,100113.53
2023-02-19T08:39:56.472Z,100106.25
2023-02-19T08:41:28.634Z,100111.25
2023-02-19T08:43:09.300Z,100117.72
2023-02-19T08:44:41.642Z,100104.88
2023-02-19T08:46:13.952Z,100121.97
2023-02-19T08:47:46.298Z,100120.13
2023-02-19T08:49:18.414Z,100113.69
2023-02-19T08:50:59.495Z,100111.00
2023-02-19T08:52:31.947Z,100103.78
2023-02-19T08:54:04.691Z,100101.28
2023-02-19T08:55:38.711Z,100097.44
2023-02-19T08:57:10.832Z,100094.63
2023-02-19T08:58:43.349Z,100103.91
2023-02-19T09:00:15.832Z,100094.00
2023-02-19T09:01:48.090Z,100093.88
2023-02-19T09:03:20.272Z,100097.28
2023-02-19T09:04:52.520Z,100103.25
2023-02-19T09:06:24.601Z,100096.09
2023-02-19T09:07:57.412Z,100097.66
2023-02-19T09:09:29.678Z,100100.44
2023-02-19T09:11:03.779Z,100104.50
2023-02-19T09:12:35.858Z,100090.31
2023-02-19T09:14:08.184Z,100097.13
2023-02-19T09:15:40.379Z,100087.81
2023-02-19T09:17:13.094Z,100093.13
2023-02-19T09:18:46.207Z,100090.50
2023-02-19T09:20:18.476Z,100100.59
2023-02-19T09:21:50.628Z,100099.00
2023-02-19T09:23:23.184Z,100100.59
2023-02-19T09:24:55.519Z,100099.00
2023-02-19T09:26:27.748Z,100097.06
2023-02-19T09:27:59.908Z,100095.13
2023-02-19T09:29:32.003Z,100103.59
2023-02-19T09:31:06.061Z,100094.59
2023-02-19T09:32:38.136Z,100095.34
2023-02-19T09:34:10.561Z,100100.25
2023-02-19T09:35:42.588Z,100087.31
2023-02-19T09:37:14.696Z,100095.13
2023-02-19T09:38:46.888Z,100085.59
2023-02-19T09:40:21.945Z,100081.03
2023-02-19T09:41:59.554Z,100079.03
2023-02-19T09:43:31.714Z,100078.28
2023-02-19T09:45:05.047Z,100094.53
2023-02-19T09:46:43.684Z,100077.59
2023-02-19T09:48:15.911Z,100088.66
2023-02-19T09:49:52.864Z,100080.72
2023-02-19T09:51:26.503Z,100076.13
2023-02-19T09:53:00.126Z,100076.75
2023-02-19T09:56:05.396Z,100072.47
2023-02-19T09:57:37.621Z,100069.56
2023-02-19T09:59:20.081Z,100064.31
2023-02-19T10:00:52.865Z,100064.88
2023-02-19T10:02:26.176Z,100065.88
2023-02-19T10:03:58.141Z,100050.69
2023-02-19T10:05:30.592Z,100054.31
2023-02-19T10:07:04.044Z,100058.63
2023-02-19T10:08:38.243Z,100054.88
2023-02-19T10:10:23.207Z,100056.34
2023-02-19T10:11:56.865Z,100061.75
2023-02-19T10:13:51.329Z,100059.56
2023-02-19T10:15:39.555Z,100062.97
2023-02-19T10:17:25.519Z,100056.78
2023-02-19T10:18:57.629Z,100050.19
2023-02-19T10:20:30.125Z,100054.66
2023-02-19T10:22:06.914Z,100050.19
2023-02-19T10:23:40.340Z,100050.16
2023-02-19T10:25:18.944Z,100041.13
2023-02-19T10:26:50.982Z,100041.22
2023-02-19T10:28:34.154Z,100040.28
2023-02-19T10:30:06.913Z,100034.13
2023-02-19T10:31:39.200Z,100031.81
2023-02-19T10:33:16.316Z,100032.34
2023-02-19T10:34:48.442Z,100021.56
2023-02-19T10:36:32.155Z,100024.97
2023-02-19T10:38:07.079Z,100018.66
2023-02-19T10:39:44.011Z,100019.03
2023-02-19T10:41:21.178Z,100008.81
2023-02-19T10:43:04.224Z,100002.22
2023-02-19T10:44:42.166Z,99998.69
2023-02-19T10:46:19.716Z,100001.84
2023-02-19T10:47:52.080Z,99989.50
2023-02-19T10:49:34.461Z,99989.56
2023-02-19T10:51:09.213Z,99994.44
2023-02-19T10:54:19.919Z,99980.28
2023-02-19T10:56:11.711Z,99980.06
2023-02-19T10:57:43.879Z,99975.91
2023-02-19T10:59:28.291Z,99972.13
2023-02-19T11:01:21.321Z,99966.88
2023-02-19T11:03:22.584Z,99970.44
2023-02-19T11:05:20.861Z,99958.75
2023-02-19T11:06:53.072Z,99956.13
2023-02-19T11:08:25.371Z,99956.28
2023-02-19T11:09:57.853Z,99957.97
2023-02-19T11:11:36.140Z,99935.56
2023-02-19T11:13:15.021Z,99946.19
2023-02-19T11:14:47.093Z,99940.75
2023-02-19T11:16:19.140Z,99941.38
2023-02-19T11:17:57.734Z,99940.03
2023-02-19T11:19:29.798Z,99941.72
2023-02-19T11:21:04.858Z,99925.72
2023-02-19T11:22:40.023Z,99930.47
2023-02-19T11:24:34.527Z,99922.44
2023-02-19T11:26:14.602Z,99924.44
2023-02-19T11:27:58.575Z,99920.44
2023-02-19T11:29:35.022Z,99915.13
2023-02-19T11:31:20.684Z,99918.53
2023-02-19T11:32:52.983Z,99911.63
2023-02-19T11:34:30.428Z,99910.41
2023-02-19T11:36:30.102Z,99901.56
2023-02-19T11:38:02.778Z,99902.53
2023-02-19T11:39:36.025Z,99897.53
2023-02-19T11:41:28.400Z,99903.44
2023-02-19T11:43:26.682Z,99887.91
2023-02-19T11:45:13.787Z,99882.50
2023-02-19T11:47:24.545Z,99891.22
2023-02-19T11:49:05.109Z,99884.03
2023-02-19T11:50:53.524Z,99879.63
2023-02-19T11:53:07.219Z,99874.75
2023-02-19T11:54:52.320Z,99881.97
2023-02-19T11:56:34.188Z,99872.69
2023-02-19T11:58:49.955Z,99865.13
2023-02-19T12:00:30.585Z,99867.03
2023-02-19T12:02:28.791Z,99865.13
2023-02-19T12:04:22.035Z,99860.97
2023-02-19T12:06:00.113Z,99863.38
2023-02-19T12:08:09.837Z,99867.75
2023-02-19T12:09:57.147Z,99855.19
2023-02-19T12:11:49.535Z,99856.84
2023-02-19T12:13:48.798Z,99859.75
2023-02-19T12:15:24.090Z,99851.03
2023-02-19T12:17:24.143Z,99851.38
2023-02-19T12:19:02.268Z,99849.59
2023-02-19T12:21:07.135Z,99848.19
2023-02-19T12:22:55.643Z,99852.69
2023-02-19T12:24:30.607Z,99848.19
2023-02-19T12:26:33.147Z,99838.25
2023-02-19T12:28:19.585Z,99838.44
2023-02-19T12:30:22.381Z,99832.72
2023-02-19T12:32:15.439Z,99829.78
2023-02-19T12:34:08.657Z,99834.88
2023-02-19T12:35:47.956Z,99825.22
2023-02-19T12:37:38.938Z,99813.00
2023-02-19T12:39:35.154Z,99813.34
2023-02-19T12:41:25.945Z,99807.56
2023-02-19T12:43:14.347Z,99795.91
2023-02-19T12:44:54.540Z,99796.41
2023-02-19T12:46:29.964Z,99790.81
2023-02-19T12:48:40.408Z,99795.72
2023-02-19T12:50:31.352Z,99786.13
2023-02-19T12:52:21.164Z,99784.09
2023-02-19T12:53:57.646Z,99778.44
2023-02-19T12:55:36.898Z,99780.31
2023-02-19T12:57:25.523Z,99779.13
2023-02-19T12:59:02.666Z,99767.84
2023-02-19T13:00:56.977Z,99772.06
2023-02-19T13:02:29.209Z,99769.59
2023-02-19T13:04:24.912Z,99763.16
2023-02-19T13:06:42.112Z,99765.53
2023-02-19T13:08:35.571Z,99764.88
2023-02-19T13:10:11.220Z,99758.81
2023-02-19T13:11:53.901Z,99757.09
2023-02-19T13:13:31.350Z,99749.41
2023-02-19T13:15:14.299Z,99748.56
2023-02-19T13:16:49.998Z,99738.50
2023-02-19T13:18:27.352Z,99744.41
2023-02-19T13:21:56.034Z,99746.44
2023-02-19T13:23:50.468Z,99738.63
2023-02-19T13:25:22.930Z,99729.22
2023-02-19T13:27:12.877Z,99736.50
2023-02-19T13:29:10.050Z,99737.69
2023-02-19T13:31:17.255Z,99730.19
2023-02-19T13:33:01.396Z,99734.00
2023-02-19T13:34:49.594Z,99721.63
2023-02-19T13:36:29.243Z,99722.03
2023-02-19T13:38:02.866Z,99724.44
2023-02-19T13:39:35.104Z,99729.25
2023-02-19T13:41:07.687Z,99723.25
2023-02-19T13:42:39.934Z,99726.63
2023-02-19T13:44:23.784Z,99714.94
2023-02-19T13:45:56.983Z,99711.72
2023-02-19T13:47:49.446Z,99715.22
2023-02-19T13:49:32.745Z,99717.84
2023-02-19T13:51:17.432Z,99723.44
2023-02-19T13:52:50.338Z,99721.31
2023-02-19T13:54:33.835Z,99719.13
2023-02-19T13:56:28.490Z,99715.94
2023-02-19T13:58:40.638Z,99707.31
2023-02-19T14:00:49.586Z,99712.75
2023-02-19T14:02:21.812Z,99717.97
2023-02-19T14:03:55.988Z,99720.69
2023-02-19T14:05:59.996Z,99717.97
2023-02-19T14:07:32.100Z,99717.69
2023-02-19T14:09:04.136Z,99712.72
2023-02-19T14:10:51.187Z,99711.00
2023-02-19T14:12:35.575Z,99698.84
2023-02-19T14:14:29.390Z,99706.88
2023-02-19T14:16:01.436Z,99694.88
2023-02-19T14:17:36.331Z,99701.97
2023-02-19T14:20:46.889Z,99688.44
2023-02-19T14:22:46.908Z,99685.50
2023-02-19T14:24:19.036Z,99683.53
2023-02-19T14:25:54.407Z,99686.28
2023-02-19T14:27:26.566Z,99683.22
2023-02-19T14:29:02.547Z,99680.59
2023-02-19T15:25:24.586Z,99691.00
2023-02-19T15:26:56.983Z,99691.34
2023-02-19T15:28:33.617Z,99694.13
2023-02-19T15:30:24.617Z,99693.56
2023-02-19T15:31:59.600Z,99693.97
2023-02-19T15:33:34.870Z,99691.63
2023-02-19T15:35:07.139Z,99694.44
2023-02-19T15:36:39.455Z,99695.63
2023-02-19T15:38:13.014Z,99699.16
2023-02-19T15:39:46.861Z,99690.69
2023-02-19T15:41:20.423Z,99690.06
2023-02-19T15:42:52.532Z,99685.25
2023-02-19T15:44:27.180Z,99693.41
2023-02-19T15:46:03.541Z,99694.63
2023-02-19T15:47:58.377Z,99696.72
2023-02-19T15:49:57.824Z,99697.88
2023-02-19T15:51:39.656Z,99702.50
2023-02-19T15:53:20.114Z,99706.22
2023-02-19T15:55:19.161Z,99698.78
2023-02-19T15:56:51.263Z,99701.84
2023-02-19T15:58:46.006Z,99702.81
2023-02-19T16:00:21.979Z,99705.78
2023-02-19T16:01:54.323Z,99718.28
2023-02-19T16:03:28.164Z,99727.16
2023-02-19T16:05:02.663Z,99732.69
2023-02-19T16:06:52.101Z,99729.50
2023-02-19T16:08:30.927Z,99726.31
2023-02-19T16:10:21.642Z,99729.34
2023-02-19T16:11:55.381Z,99721.06
2023-02-19T16:13:30.732Z,99727.34
2023-02-19T16:15:13.502Z,99725.09
2023-02-19T16:16:46.829Z,99729.00
2023-02-19T16:18:18.783Z,99734.34
2023-02-19T16:20:05.082Z,99736.38
2023-02-19T16:21:37.400Z,99735.13
2023-02-19T16:23:15.362Z,99739.78
2023-02-19T16:24:55.237Z,99742.72
2023-02-19T16:26:28.311Z,99747.44
2023-02-19T16:28:00.469Z,99741.66
2023-02-19T16:29:33.682Z,99752.22
2023-02-19T16:31:06.670Z,99753.34
2023-02-19T16:32:38.733Z,99750.88
2023-02-19T16:34:29.868Z,99751.84
2023-02-19T16:36:33.942Z,99759.78
2023-02-19T16:38:17.326Z,99762.59
2023-02-19T16:40:00.410Z,99766.34
2023-02-19T16:41:33.010Z,99765.78
2023-02-19T16:43:04.987Z,99762.63
2023-02-19T16:44:37.816Z,99773.34
2023-02-19T16:46:11.624Z,99769.50
2023-02-19T16:47:48.748Z,99770.75
2023-02-19T16:49:21.637Z,99773.50
2023-02-19T16:50:56.290Z,99770.16
2023-02-19T16:52:29.137Z,99776.41
2023-02-19T16:54:01.347Z,99779.31
2023-02-19T16:55:34.973Z,99774.34
2023-02-19T16:57:07.086Z,99781.44
2023-02-19T17:00:23.293Z,99792.97
2023-02-19T17:01:55.497Z,99788.09
2023-02-19T17:03:28.235Z,99788.25
2023-02-19T17:05:01.046Z,99787.56
2023-02-19T17:06:35.093Z,99792.03
2023-02-19T17:08:31.861Z,99798.91
2023-02-19T17:10:04.062Z,99788.59
2023-02-19T17:11:36.527Z,99791.16
2023-02-19T17:13:09.187Z,99796.38
2023-02-19T17:14:41.349Z,99803.31
2023-02-19T17:16:25.351Z,99804.13
2023-02-19T17:17:57.505Z,99798.31
2023-02-19T17:19:29.621Z,99807.00
2023-02-19T17:21:21.037Z,99807.00
2023-02-19T17:22:53.165Z,99808.09
2023-02-19T17:24:25.618Z,99818.59
2023-02-19T17:25:57.697Z,99816.22
2023-02-19T17:27:29.730Z,99826.78
2023-02-19T17:29:04.638Z,99821.69
2023-02-19T17:30:38.842Z,99827.09
2023-02-19T17:33:57.746Z,99836.78
2023-02-19T17:35:29.892Z,99841.13
2023-02-19T17:37:01.890Z,99850.59
2023-02-19T17:38:33.986Z,99854.91
2023-02-19T17:40:32.218Z,99853.97
2023-02-19T17:42:06.380Z,99859.16
2023-02-19T17:43:38.358Z,99854.00
2023-02-19T17:45:10.370Z,99860.09
2023-02-19T17:46:42.514Z,99858.34
2023-02-19T17:48:15.278Z,99865.38
2023-02-19T17:49:47.447Z,99864.59
2023-02-19T17:51:19.759Z,99868.13
2023-02-19T17:52:51.907Z,99859.53
2023-02-19T17:54:23.941Z,99853.56
2023-02-19T17:55:55.986Z,99863.13
2023-02-19T17:57:33.010Z,99866.66
2023-02-19T17:59:05.072Z,99866.72
2023-02-19T18:00:37.182Z,99871.09
2023-02-19T18:02:09.395Z,99874.56
2023-02-19T18:03:41.752Z,99867.69
2023-02-19T18:05:14.272Z,99881.50
2023-02-19T18:06:46.518Z,99875.47
2023-02-19T18:08:18.727Z,99889.25
2023-02-19T18:09:51.084Z,99886.66
2023-02-19T18:11:24.156Z,99886.66
2023-02-19T18:12:56.611Z,99892.66
2023-02-19T18:14:28.669Z,99887.47
2023-02-19T18:16:00.733Z,99889.13
2023-02-19T18:17:32.874Z,99893.41
2023-02-19T18:19:04.970Z,99886.53
2023-02-19T18:20:37.333Z,99892.47
2023-02-19T18:22:09.352Z,99892.44
2023-02-19T18:23:41.529Z,99901.94
2023-02-19T18:25:13.704Z,99898.47
2023-02-19T18:26:45.950Z,99894.19
2023-02-19T18:28:18.087Z,99897.63
2023-02-19T18:29:55.556Z,99904.47
2023-02-19T18:31:27.714Z,99914.09
2023-02-19T18:32:59.799Z,99914.22
2023-02-19T18:34:31.832Z,99922.06
2023-02-19T18:36:04.399Z,99916.09
2023-02-19T18:37:36.411Z,99921.31
2023-02-19T18:39:08.422Z,99925.66
2023-02-19T18:40:40.528Z,99923.09
2023-02-19T18:43:44.333Z,99924.94
2023-02-19T18:45:16.441Z,99931.84
2023-02-19T18:46:48.963Z,99941.34
2023-02-19T18:48:20.973Z,99936.25
2023-02-19T18:49:55.674Z,99950.84
2023-02-19T18:51:27.729Z,99939.69
2023-02-19T18:53:00.032Z,99948.34
2023-02-19T18:54:32.790Z,99952.66
2023-02-19T18:56:05.762Z,99951.06
2023-02-19T18:57:38.314Z,99958.00
2023-02-19T18:59:10.478Z,99954.59
2023-02-19T19:00:42.597Z,99958.13
2023-02-19T19:02:15.377Z,99959.06
2023-02-19T19:03:47.404Z,99965.22
2023-02-19T19:05:24.324Z,99960.06
2023-02-19T19:06:56.347Z,99962.72
2023-02-19T19:08:30.592Z,99961.84
2023-02-19T19:10:02.888Z,99967.91
2023-02-19T19:11:35.263Z,99969.72
2023-02-19T19:13:07.454Z,99970.63
2023-02-19T19:14:39.532Z,99969.78
2023-02-19T19:16:11.907Z,99966.34
2023-02-19T19:17:44.050Z,99965.47
2023-02-19T19:19:16.527Z,99967.09
2023-02-19T19:20:48.529Z,99961.00
2023-02-19T19:22:23.096Z,99960.97
2023-02-19T19:23:55.158Z,99961.78
2023-02-19T19:25:27.186Z,99962.63
2023-02-19T19:26:59.199Z,99965.16
2023-02-19T19:28:31.692Z,99957.38
2023-02-19T19:30:05.309Z,99971.16
2023-02-19T19:31:37.783Z,99976.34
2023-02-19T19:33:11.938Z,99968.56
2023-02-19T19:34:44.226Z,99979.00
2023-02-19T19:36:20.264Z,99983.19
2023-02-19T19:37:54.856Z,99978.84
2023-02-19T19:39:26.952Z,99983.19
2023-02-19T19:40:59.154Z,99989.22
2023-02-19T19:42:31.332Z,99987.44
2023-02-19T19:44:07.019Z,99978.75
2023-02-19T19:47:22.070Z,99978.91
2023-02-19T19:48:54.321Z,99988.44
2023-02-19T19:50:26.430Z,99978.19
2023-02-19T19:52:01.373Z,99991.13
2023-02-19T19:53:33.446Z,99994.59
2023-02-19T19:55:06.437Z,99998.03
2023-02-19T19:56:42.485Z,99992.88
2023-02-19T19:58:14.546Z,99991.25
2023-02-19T19:59:51.361Z,99996.41
2023-02-19T20:01:23.996Z,99999.91
2023-02-19T20:02:56.180Z,100002.50
2023-02-19T20:04:28.438Z,100002.50
2023-02-19T20:06:00.590Z,99999.00